Time;durP1;ratioP1;P1;durP2;ratioP2;P2;SDS_P1;SDS_P2;PMS_P1;PMS_P2;Temp;Humidity;BMP_temperature;BMP_pressure;BME280_temperature;BME280_humidity;BME280_pressure;Samples;Min_cycle;Max_cycle;Signal;HPM_P1;HPM_P2
2022/09/05 00:01:22;;;;;;;16.88;2.75;;;;;;;;;;5042164;28;20040;-68
2022/09/05 00:04:19;;;;;;;8.90;3.10;;;;;;;;;;5044003;28;20081;-67
2022/09/05 00:07:41;;;;;;;11.95;2.90;;;;;;;;;;5044874;28;20083;-77
2022/09/05 00:10:33;;;;;;;9.90;2.88;;;;;;;;;;5043729;28;20562;-73
2022/09/05 00:13:22;;;;;;;9.32;3.13;;;;;;;;;;5045243;28;20067;-67
2022/09/05 00:16:12;;;;;;;13.27;3.22;;;;;;;;;;5046085;28;20132;-68
2022/09/05 00:19:09;;;;;;;12.80;3.05;;;;;;;;;;5039968;28;20202;-66
2022/09/05 00:22:21;;;;;;;10.82;2.97;;;;;;;;;;5042557;28;20091;-67
2022/09/05 00:25:37;;;;;;;10.73;2.95;;;;;;;;;;5040575;28;20154;-67
2022/09/05 00:28:39;;;;;;;7.00;2.55;;;;;;;;;;5042726;28;20918;-68
2022/09/05 00:31:46;;;;;;;11.25;2.95;;;;;;;;;;5041964;28;20103;-67
2022/09/05 00:34:59;;;;;;;13.20;2.92;;;;;;;;;;5045759;28;20052;-67
2022/09/05 00:37:46;;;;;;;12.07;2.78;;;;;;;;;;5037995;28;20055;-66
2022/09/05 00:40:43;;;;;;;9.45;2.60;;;;;;;;;;5042158;28;20098;-67
2022/09/05 00:43:43;;;;;;;10.73;2.63;;;;;;;;;;5042847;28;20043;-66
2022/09/05 00:46:32;;;;;;;12.57;3.20;;;;;;;;;;5042052;28;20047;-68
2022/09/05 00:49:28;;;;;;;8.10;2.80;;;;;;;;;;5039146;28;20462;-67
2022/09/05 00:52:36;;;;;;;9.30;2.90;;;;;;;;;;5042652;28;20815;-67
2022/09/05 00:55:47;;;;;;;11.82;3.17;;;;;;;;;;5039506;28;20103;-67
2022/09/05 00:58:43;;;;;;;7.93;2.72;;;;;;;;;;5035078;28;20134;-65
2022/09/05 01:01:36;;;;;;;10.50;3.25;;;;;;;;;;5040356;28;20559;-67
2022/09/05 01:04:50;;;;;;;9.63;2.92;;;;;;;;;;5040886;28;20052;-66
2022/09/05 01:07:49;;;;;;;8.32;2.88;;;;;;;;;;5041354;28;20082;-66
2022/09/05 01:11:03;;;;;;;14.93;3.00;;;;;;;;;;5040547;28;20410;-65
2022/09/05 01:14:18;;;;;;;12.13;3.42;;;;;;;;;;5035624;28;20071;-66
2022/09/05 01:17:07;;;;;;;10.68;3.00;;;;;;;;;;5042673;28;20248;-65
2022/09/05 01:20:29;;;;;;;14.38;3.20;;;;;;;;;;5038101;28;20095;-66
2022/09/05 01:23:51;;;;;;;11.77;3.00;;;;;;;;;;5039738;28;20130;-66
2022/09/05 01:27:03;;;;;;;12.13;3.17;;;;;;;;;;5042801;28;20494;-69
2022/09/05 01:30:07;;;;;;;11.15;2.70;;;;;;;;;;5036617;28;20116;-66
2022/09/05 01:32:57;;;;;;;11.35;2.83;;;;;;;;;;5043288;28;20056;-66
2022/09/05 01:35:56;;;;;;;10.13;2.85;;;;;;;;;;5040277;28;20079;-64
2022/09/05 01:38:52;;;;;;;9.38;2.95;;;;;;;;;;5040832;28;20271;-65
2022/09/05 01:41:48;;;;;;;12.68;3.35;;;;;;;;;;5040148;28;20036;-67
2022/09/05 01:44:38;;;;;;;14.02;3.22;;;;;;;;;;5042428;28;20047;-65
2022/09/05 01:47:56;;;;;;;12.07;3.25;;;;;;;;;;5040562;28;20398;-65
2022/09/05 01:51:10;;;;;;;11.13;2.80;;;;;;;;;;5042258;28;20056;-66
2022/09/05 01:54:07;;;;;;;12.70;2.97;;;;;;;;;;5041269;28;20083;-66
2022/09/05 01:57:13;;;;;;;11.77;2.65;;;;;;;;;;5041237;28;20065;-66
2022/09/05 02:00:04;;;;;;;12.15;2.80;;;;;;;;;;5036719;28;20072;-65
2022/09/05 02:03:18;;;;;;;14.82;3.63;;;;;;;;;;5041943;28;20116;-65
2022/09/05 02:06:30;;;;;;;10.43;2.58;;;;;;;;;;5040916;28;20350;-65
2022/09/05 02:09:30;;;;;;;8.40;2.65;;;;;;;;;;5035443;28;20091;-67
2022/09/05 02:12:14;;;;;;;13.68;2.88;;;;;;;;;;5041180;28;20039;-66
2022/09/05 02:15:17;;;;;;;11.90;2.65;;;;;;;;;;5039822;28;20484;-65
2022/09/05 02:18:10;;;;;;;10.82;2.55;;;;;;;;;;5037911;28;20071;-65
2022/09/05 02:21:03;;;;;;;11.75;2.70;;;;;;;;;;5041791;28;20484;-68
2022/09/05 02:24:01;;;;;;;9.02;2.70;;;;;;;;;;5040692;28;20107;-64
2022/09/05 02:27:10;;;;;;;10.10;2.65;;;;;;;;;;5040811;28;20060;-68
2022/09/05 02:30:21;;;;;;;10.38;2.42;;;;;;;;;;5032587;28;20110;-65
2022/09/05 02:33:05;;;;;;;13.82;2.92;;;;;;;;;;5042206;28;20043;-66
2022/09/05 02:36:10;;;;;;;7.57;2.50;;;;;;;;;;5039610;28;20497;-66
2022/09/05 02:39:29;;;;;;;11.55;2.75;;;;;;;;;;5032228;28;20075;-65
2022/09/05 02:42:26;;;;;;;13.25;2.92;;;;;;;;;;5041520;28;20055;-65
2022/09/05 02:45:32;;;;;;;6.72;2.40;;;;;;;;;;5040415;28;20102;-65
2022/09/05 02:48:38;;;;;;;10.80;2.63;;;;;;;;;;5038118;28;20036;-68
2022/09/05 02:51:52;;;;;;;14.75;2.95;;;;;;;;;;5041234;28;20094;-66
2022/09/05 02:54:43;;;;;;;11.60;2.60;;;;;;;;;;5042513;28;20036;-65
2022/09/05 02:57:52;;;;;;;9.52;2.42;;;;;;;;;;5035382;28;20555;-66
2022/09/05 03:00:45;;;;;;;9.70;2.60;;;;;;;;;;5042678;28;20048;-67
2022/09/05 03:03:52;;;;;;;11.10;2.90;;;;;;;;;;5042899;28;20421;-65
2022/09/05 03:07:16;;;;;;;12.00;2.95;;;;;;;;;;5044313;28;20052;-65
2022/09/05 03:10:21;;;;;;;12.68;2.97;;;;;;;;;;5038705;28;20489;-67
2022/09/05 03:13:19;;;;;;;10.10;2.65;;;;;;;;;;5037555;28;20032;-66
2022/09/05 03:16:29;;;;;;;10.18;2.60;;;;;;;;;;5043280;28;20143;-66
2022/09/05 03:19:38;;;;;;;8.52;2.83;;;;;;;;;;5036870;28;20110;-65
2022/09/05 03:22:26;;;;;;;10.90;3.15;;;;;;;;;;5040596;28;20056;-66
2022/09/05 03:25:32;;;;;;;14.02;3.33;;;;;;;;;;5039676;28;20060;-68
2022/09/05 03:28:16;;;;;;;10.70;2.53;;;;;;;;;;5033441;28;20051;-66
2022/09/05 03:31:13;;;;;;;6.95;2.30;;;;;;;;;;5040315;28;20131;-66
2022/09/05 03:34:15;;;;;;;10.38;3.08;;;;;;;;;;5041827;28;20088;-66
2022/09/05 03:37:11;;;;;;;10.68;2.95;;;;;;;;;;5039518;28;20079;-65
2022/09/05 03:40:14;;;;;;;15.10;2.80;;;;;;;;;;5038885;28;20773;-66
2022/09/05 03:43:13;;;;;;;8.93;2.50;;;;;;;;;;5041003;28;20044;-67
2022/09/05 03:46:24;;;;;;;8.18;2.55;;;;;;;;;;5039407;28;20051;-66
2022/09/05 03:49:18;;;;;;;7.30;2.80;;;;;;;;;;5034219;28;20086;-67
2022/09/05 03:52:40;;;;;;;8.20;2.55;;;;;;;;;;5040136;28;20055;-66
2022/09/05 03:55:46;;;;;;;14.30;2.72;;;;;;;;;;5040968;28;20079;-66
2022/09/05 03:58:37;;;;;;;16.27;2.88;;;;;;;;;;5036095;28;20056;-65
2022/09/05 04:01:34;;;;;;;15.85;2.83;;;;;;;;;;5038366;28;20504;-65
2022/09/05 04:04:32;;;;;;;11.38;3.00;;;;;;;;;;5042476;28;20190;-70
2022/09/05 04:07:43;;;;;;;9.70;2.83;;;;;;;;;;5042192;28;20462;-66
2022/09/05 04:10:57;;;;;;;10.50;2.90;;;;;;;;;;5040841;28;20119;-66
2022/09/05 04:14:17;;;;;;;12.32;2.95;;;;;;;;;;5043236;28;20048;-70
2022/09/05 04:17:09;;;;;;;11.63;2.92;;;;;;;;;;5040030;28;20134;-65
2022/09/05 04:20:10;;;;;;;8.98;2.50;;;;;;;;;;5036720;28;20051;-65
2022/09/05 04:23:33;;;;;;;14.25;2.83;;;;;;;;;;5041820;28;20079;-66
2022/09/05 04:26:53;;;;;;;11.10;3.03;;;;;;;;;;5042723;28;20120;-65
2022/09/05 04:30:04;;;;;;;4.65;2.45;;;;;;;;;;5041200;28;20102;-66
2022/09/05 04:33:03;;;;;;;13.30;3.00;;;;;;;;;;5017682;28;20423;-65
2022/09/05 04:36:05;;;;;;;10.07;2.42;;;;;;;;;;5042053;28;20447;-66
2022/09/05 04:39:24;;;;;;;10.10;2.83;;;;;;;;;;5038319;28;20401;-66
2022/09/05 04:42:18;;;;;;;12.43;2.70;;;;;;;;;;5042777;28;20131;-65
2022/09/05 04:45:09;;;;;;;16.50;3.45;;;;;;;;;;5044382;28;20079;-67
2022/09/05 04:47:56;;;;;;;14.50;2.50;;;;;;;;;;5039380;28;20043;-66
2022/09/05 04:51:01;;;;;;;9.25;2.88;;;;;;;;;;5043023;28;20094;-66
2022/09/05 04:54:24;;;;;;;9.50;2.55;;;;;;;;;;5039539;28;20071;-68
2022/09/05 04:57:17;;;;;;;11.63;2.80;;;;;;;;;;5028099;28;20147;-66
2022/09/05 05:00:13;;;;;;;9.85;2.90;;;;;;;;;;5039157;28;20043;-66
2022/09/05 05:03:01;;;;;;;8.80;2.45;;;;;;;;;;5040388;28;20071;-66
2022/09/05 05:05:45;;;;;;;13.38;2.92;;;;;;;;;;5036497;28;20051;-67
2022/09/05 05:08:33;;;;;;;12.90;3.20;;;;;;;;;;5037988;28;20971;-67
2022/09/05 05:11:44;;;;;;;10.02;3.05;;;;;;;;;;5037132;28;20047;-67
2022/09/05 05:14:41;;;;;;;11.30;3.50;;;;;;;;;;5036456;28;20426;-69
2022/09/05 05:18:10;;;;;;;12.60;3.53;;;;;;;;;;5042852;28;20151;-67
2022/09/05 05:20:54;;;;;;;9.63;3.35;;;;;;;;;;5040525;28;20525;-65
2022/09/05 05:23:42;;;;;;;8.80;3.38;;;;;;;;;;5042675;28;20048;-66
2022/09/05 05:26:31;;;;;;;10.20;3.20;;;;;;;;;;5043871;28;20124;-68
2022/09/05 05:29:42;;;;;;;12.45;3.58;;;;;;;;;;5036967;28;20094;-66
2022/09/05 05:32:32;;;;;;;10.15;3.13;;;;;;;;;;5038250;28;20044;-62
2022/09/05 05:35:30;;;;;;;14.32;3.25;;;;;;;;;;5040453;28;20083;-63
2022/09/05 05:38:34;;;;;;;12.02;3.55;;;;;;;;;;5037246;28;20079;-63
2022/09/05 05:41:26;;;;;;;9.48;3.00;;;;;;;;;;5043117;28;20114;-62
2022/09/05 05:44:31;;;;;;;9.73;2.92;;;;;;;;;;5044051;28;20084;-62
2022/09/05 05:47:26;;;;;;;7.32;2.83;;;;;;;;;;5041647;28;20062;-62
2022/09/05 05:50:14;;;;;;;;;;;;;;;;;;5037707;28;20501;-62
2022/09/05 05:53:31;;;;;;;12.18;2.72;;;;;;;;;;5039919;28;19933;-62
2022/09/05 05:56:37;;;;;;;10.35;2.90;;;;;;;;;;5039192;28;20055;-63
2022/09/05 06:00:05;;;;;;;8.05;2.88;;;;;;;;;;5033047;28;20402;-64
2022/09/05 06:03:14;;;;;;;9.32;3.30;;;;;;;;;;4958918;28;20041;-62
2022/09/05 06:06:21;;;;;;;12.32;3.28;;;;;;;;;;4961824;28;20270;-63
2022/09/05 06:09:27;;;;;;;12.45;3.58;;;;;;;;;;4951791;28;20566;-62
2022/09/05 06:12:46;;;;;;;13.15;3.45;;;;;;;;;;4959310;28;20041;-63
2022/09/05 06:16:04;;;;;;;11.93;3.17;;;;;;;;;;4955597;28;20078;-62
2022/09/05 06:19:28;;;;;;;8.23;2.95;;;;;;;;;;4964400;28;20461;-62
2022/09/05 06:22:48;;;;;;;13.13;3.63;;;;;;;;;;4963708;28;20585;-68
2022/09/05 06:26:11;;;;;;;12.70;3.33;;;;;;;;;;4961904;28;20123;-62
2022/09/05 06:28:58;;;;;;;11.38;3.13;;;;;;;;;;4961478;28;20432;-63
2022/09/05 06:32:05;;;;;;;9.73;3.15;;;;;;;;;;4960080;28;20058;-64
2022/09/05 06:35:12;;;;;;;12.27;3.05;;;;;;;;;;4950046;28;20057;-66
2022/09/05 06:38:21;;;;;;;14.23;3.55;;;;;;;;;;5025175;28;20051;-63
2022/09/05 06:41:24;;;;;;;11.95;3.28;;;;;;;;;;5021107;28;20501;-62
2022/09/05 06:44:14;;;;;;;18.15;3.05;;;;;;;;;;5027589;28;20077;-65
2022/09/05 06:47:05;;;;;;;13.73;3.67;;;;;;;;;;5027368;28;20098;-64
2022/09/05 06:49:52;;;;;;;21.33;4.07;;;;;;;;;;5013765;28;20045;-63
2022/09/05 06:53:14;;;;;;;21.13;3.65;;;;;;;;;;5025636;28;20124;-63
2022/09/05 06:56:04;;;;;;;17.95;3.83;;;;;;;;;;5023183;28;20395;-65
2022/09/05 06:59:14;;;;;;;23.38;3.97;;;;;;;;;;5022433;28;20064;-63
2022/09/05 07:02:14;;;;;;;16.20;3.67;;;;;;;;;;5016463;28;20072;-65
2022/09/05 07:05:24;;;;;;;22.02;4.22;;;;;;;;;;5026088;28;20040;-61
2022/09/05 07:08:25;;;;;;;21.92;3.90;;;;;;;;;;5016232;28;20048;-62
2022/09/05 07:11:21;;;;;;;16.67;3.40;;;;;;;;;;5013280;28;20040;-66
2022/09/05 07:14:19;;;;;;;13.27;3.40;;;;;;;;;;5015933;28;20113;-64
2022/09/05 07:17:16;;;;;;;17.98;3.40;;;;;;;;;;5014238;28;20048;-64
2022/09/05 07:20:12;;;;;;;13.88;3.78;;;;;;;;;;5015434;28;20073;-67
2022/09/05 07:23:28;;;;;;;10.32;3.38;;;;;;;;;;5015747;28;20092;-65
2022/09/05 07:26:14;;;;;;;14.10;3.60;;;;;;;;;;5015327;28;20795;-65
2022/09/05 07:29:03;;;;;;;16.35;3.75;;;;;;;;;;5017263;28;20072;-62
2022/09/05 07:31:56;;;;;;;18.08;3.83;;;;;;;;;;5023796;28;20113;-65
2022/09/05 07:34:44;;;;;;;17.20;4.13;;;;;;;;;;5021136;28;20051;-65
2022/09/05 07:37:42;;;;;;;17.55;3.88;;;;;;;;;;5027428;28;20694;-64
2022/09/05 07:40:28;;;;;;;16.95;3.50;;;;;;;;;;5015360;28;20064;-64
2022/09/05 07:43:17;;;;;;;16.35;3.50;;;;;;;;;;5028262;28;20222;-65
2022/09/05 07:46:30;;;;;;;22.55;4.03;;;;;;;;;;5025463;28;20152;-66
2022/09/05 07:49:19;;;;;;;20.73;3.80;;;;;;;;;;5029133;28;20035;-65
2022/09/05 07:52:18;;;;;;;18.85;4.32;;;;;;;;;;5029097;28;20064;-64
2022/09/05 07:55:16;;;;;;;17.17;3.78;;;;;;;;;;5029094;28;20462;-65
2022/09/05 07:58:06;;;;;;;17.02;3.60;;;;;;;;;;5025069;28;20092;-66
2022/09/05 08:00:53;;;;;;;18.10;3.50;;;;;;;;;;5027798;28;20072;-67
2022/09/05 08:03:37;;;;;;;14.07;2.85;;;;;;;;;;5030346;28;20123;-65
2022/09/05 08:06:24;;;;;;;12.15;2.70;;;;;;;;;;5012559;28;20060;-64
2022/09/05 08:09:16;;;;;;;13.50;3.33;;;;;;;;;;5027796;28;20048;-66
2022/09/05 08:12:10;;;;;;;12.55;2.83;;;;;;;;;;5021719;28;20037;-66
2022/09/05 08:15:07;;;;;;;13.57;3.00;;;;;;;;;;5023571;28;20112;-65
2022/09/05 08:18:03;;;;;;;12.05;2.95;;;;;;;;;;5027115;28;20037;-66
2022/09/05 08:21:08;;;;;;;15.25;3.03;;;;;;;;;;5028593;28;20040;-69
2022/09/05 08:23:58;;;;;;;;;;;;;;;;;;5034652;28;20079;-66
2022/09/05 08:26:47;;;;;;;12.50;2.67;;;;;;;;;;5039962;28;19939;-64
2022/09/05 08:29:37;;;;;;;11.13;2.88;;;;;;;;;;5053158;28;20036;-65
2022/09/05 08:32:52;;;;;;;12.88;3.28;;;;;;;;;;5043030;28;20093;-64
2022/09/05 08:35:39;;;;;;;;;;;;;;;;;;5045309;28;20051;-65
2022/09/05 08:38:25;;;;;;;18.00;2.70;;;;;;;;;;5043436;28;20040;-64
2022/09/05 08:41:15;;;;;;;13.07;3.03;;;;;;;;;;5045414;28;20360;-66
2022/09/05 08:44:08;;;;;;;11.45;2.50;;;;;;;;;;5047526;28;20036;-65
2022/09/05 08:47:14;;;;;;;8.52;2.38;;;;;;;;;;5050948;28;20152;-66
2022/09/05 08:50:17;;;;;;;12.48;2.65;;;;;;;;;;5048895;28;20595;-67
2022/09/05 08:53:35;;;;;;;13.27;2.42;;;;;;;;;;5048020;28;20048;-66
2022/09/05 08:56:50;;;;;;;12.20;3.00;;;;;;;;;;5047745;28;20520;-65
2022/09/05 08:59:42;;;;;;;14.85;2.63;;;;;;;;;;4987655;28;20077;-63
2022/09/05 09:02:30;;;;;;;13.18;2.60;;;;;;;;;;4980633;28;20085;-65
2022/09/05 09:05:36;;;;;;;9.95;2.53;;;;;;;;;;4987987;28;20129;-69
2022/09/05 09:08:37;;;;;;;9.60;2.35;;;;;;;;;;4987444;28;20045;-68
2022/09/05 09:11:50;;;;;;;11.35;2.72;;;;;;;;;;4987862;28;20057;-68
2022/09/05 09:14:39;;;;;;;9.32;2.00;;;;;;;;;;4948337;28;20142;-67
2022/09/05 09:17:27;;;;;;;12.35;2.50;;;;;;;;;;4943820;28;20098;-66
2022/09/05 09:20:14;;;;;;;9.45;2.10;;;;;;;;;;4947981;28;20572;-65
2022/09/05 09:23:08;;;;;;;12.55;2.83;;;;;;;;;;4948088;28;20057;-65
2022/09/05 09:25:57;;;;;;;12.98;2.95;;;;;;;;;;4939997;28;20460;-69
2022/09/05 09:28:47;;;;;;;8.77;2.60;;;;;;;;;;4947798;28;20101;-64
2022/09/05 09:32:09;;;;;;;13.73;2.90;;;;;;;;;;4944944;28;20142;-65
2022/09/05 09:35:07;;;;;;;9.43;2.67;;;;;;;;;;4944624;28;20177;-68
2022/09/05 09:38:03;;;;;;;14.02;2.63;;;;;;;;;;5021808;28;20044;-66
2022/09/05 09:41:04;;;;;;;13.25;2.63;;;;;;;;;;5017861;28;20037;-69
2022/09/05 09:44:25;;;;;;;12.82;2.90;;;;;;;;;;5028727;28;20041;-78
2022/09/05 09:47:13;;;;;;;11.68;2.65;;;;;;;;;;5025660;28;20104;-75
2022/09/05 09:50:24;;;;;;;13.25;2.63;;;;;;;;;;5021357;28;20064;-80
2022/09/05 09:53:14;;;;;;;11.55;2.95;;;;;;;;;;5056124;28;20048;-66
2022/09/05 09:56:08;;;;;;;29.33;7.43;;;;;;;;;;5046232;28;20040;-67
2022/09/05 09:59:14;;;;;;;19.88;4.63;;;;;;;;;;5049673;28;20075;-69
2022/09/05 10:02:21;;;;;;;15.75;3.80;;;;;;;;;;5047439;28;20051;-70
2022/09/05 10:05:25;;;;;;;15.57;3.83;;;;;;;;;;5045188;28;20063;-68
2022/09/05 10:08:18;;;;;;;15.57;4.28;;;;;;;;;;5045421;28;20501;-68
2022/09/05 10:13:51;;;;;;;13.60;2.88;;;;;;;;;;5310884;22;20044;-78
2022/09/05 10:17:06;;;;;;;21.60;3.33;;;;;;;;;;4974665;28;20569;-76
2022/09/05 10:20:15;;;;;;;18.23;2.90;;;;;;;;;;4963049;28;20041;-73
2022/09/05 10:23:20;;;;;;;15.63;3.10;;;;;;;;;;4969714;28;20069;-73
2022/09/05 10:26:12;;;;;;;23.80;4.03;;;;;;;;;;4967242;28;20408;-73
2022/09/05 10:29:21;;;;;;;10.10;3.22;;;;;;;;;;4964687;28;20057;-76
2022/09/05 10:32:25;;;;;;;15.65;3.38;;;;;;;;;;4962231;28;20065;-75
2022/09/05 10:35:14;;;;;;;;;;;;;;;;;;4965021;28;20045;-72
2022/09/05 10:38:13;;;;;;;14.18;2.63;;;;;;;;;;4970249;28;20041;-77
2022/09/05 10:41:18;;;;;;;17.95;3.15;;;;;;;;;;4967554;28;20093;-75
2022/09/05 10:44:03;;;;;;;;;;;;;;;;;;4973511;28;20058;-78
2022/09/05 10:47:05;;;;;;;12.02;2.72;;;;;;;;;;4973599;28;19933;-78
2022/09/05 10:50:16;;;;;;;11.82;3.13;;;;;;;;;;4978686;28;20126;-79
2022/09/05 10:53:25;;;;;;;14.88;2.55;;;;;;;;;;4973387;28;20045;-77
2022/09/05 10:56:18;;;;;;;15.85;2.83;;;;;;;;;;4973062;28;20127;-80
2022/09/05 10:59:03;;;;;;;8.20;2.45;;;;;;;;;;4972583;28;20050;-78
2022/09/05 11:02:06;;;;;;;9.68;2.42;;;;;;;;;;4976261;28;20049;-80
2022/09/05 11:05:03;;;;;;;10.68;2.60;;;;;;;;;;4968562;28;20049;-79
2022/09/05 11:07:50;;;;;;;7.60;2.80;;;;;;;;;;4971497;28;20094;-78
2022/09/05 11:11:04;;;;;;;11.27;2.80;;;;;;;;;;4973565;28;20586;-78
2022/09/05 11:13:59;;;;;;;14.45;2.55;;;;;;;;;;4982840;28;20045;-79
2022/09/05 11:16:56;;;;;;;14.60;3.28;;;;;;;;;;4985842;28;20058;-79
2022/09/05 11:19:44;;;;;;;10.50;2.33;;;;;;;;;;4980078;28;20045;-78
2022/09/05 11:22:37;;;;;;;11.32;2.58;;;;;;;;;;4987139;28;20042;-81
2022/09/05 11:25:26;;;;;;;12.02;2.78;;;;;;;;;;4975563;28;20089;-78
2022/09/05 11:28:16;;;;;;;12.77;2.47;;;;;;;;;;4972464;28;20054;-81
2022/09/05 11:31:03;;;;;;;10.73;2.58;;;;;;;;;;4975740;28;20107;-80
2022/09/05 11:34:13;;;;;;;8.07;2.20;;;;;;;;;;4972591;28;20172;-78
2022/09/05 11:37:01;;;;;;;10.05;2.67;;;;;;;;;;4975280;28;20065;-80
2022/09/05 11:40:03;;;;;;;14.55;2.97;;;;;;;;;;4975830;28;20085;-79
2022/09/05 11:42:50;;;;;;;14.25;2.45;;;;;;;;;;4975228;28;20578;-81
2022/09/05 11:45:44;;;;;;;12.50;2.90;;;;;;;;;;4981892;28;20049;-79
2022/09/05 11:49:03;;;;;;;7.95;2.10;;;;;;;;;;4980587;28;20068;-79
2022/09/05 11:52:12;;;;;;;12.85;2.78;;;;;;;;;;4982323;28;20150;-81
2022/09/05 11:55:35;;;;;;;12.00;2.60;;;;;;;;;;4978520;28;20053;-81
2022/09/05 11:58:57;;;;;;;15.93;2.95;;;;;;;;;;4984845;28;20081;-81
2022/09/05 12:02:14;;;;;;;10.80;2.55;;;;;;;;;;4975626;28;20086;-77
2022/09/05 12:05:16;;;;;;;9.98;2.30;;;;;;;;;;4984777;28;20085;-80
2022/09/05 12:08:12;;;;;;;8.55;2.58;;;;;;;;;;4988684;28;20049;-79
2022/09/05 12:11:08;;;;;;;13.63;2.60;;;;;;;;;;4971921;28;20049;-80
2022/09/05 12:14:03;;;;;;;13.48;2.60;;;;;;;;;;4998306;28;20052;-79
2022/09/05 12:17:24;;;;;;;14.43;2.92;;;;;;;;;;4978172;28;20057;-79
2022/09/05 12:20:13;;;;;;;12.55;2.50;;;;;;;;;;4979134;28;20065;-78
2022/09/05 12:23:04;;;;;;;12.73;3.08;;;;;;;;;;4975663;28;20037;-79
2022/09/05 12:26:28;;;;;;;15.95;3.03;;;;;;;;;;4975804;28;20101;-78
2022/09/05 12:29:22;;;;;;;11.25;2.53;;;;;;;;;;4980621;28;20085;-77
2022/09/05 12:32:24;;;;;;;13.07;2.58;;;;;;;;;;4988605;28;20065;-80
2022/09/05 12:35:08;;;;;;;12.70;2.80;;;;;;;;;;4963276;28;20050;-78
2022/09/05 12:38:04;;;;;;;11.15;2.58;;;;;;;;;;4982256;28;20038;-77
2022/09/05 12:41:02;;;;;;;10.82;2.45;;;;;;;;;;4959437;28;20042;-80
2022/09/05 12:43:53;;;;;;;19.58;2.80;;;;;;;;;;4977577;28;20106;-77
2022/09/05 12:47:07;;;;;;;8.77;2.40;;;;;;;;;;4974909;28;20042;-77
2022/09/05 12:50:07;;;;;;;15.13;3.13;;;;;;;;;;4971783;28;20062;-76
2022/09/05 12:53:04;;;;;;;9.23;2.30;;;;;;;;;;4968920;28;20050;-72
2022/09/05 12:56:01;;;;;;;11.90;2.78;;;;;;;;;;4972147;28;20044;-76
2022/09/05 12:58:50;;;;;;;19.50;2.58;;;;;;;;;;4964880;28;20586;-75
2022/09/05 13:01:39;;;;;;;11.68;2.70;;;;;;;;;;4968519;28;20093;-77
2022/09/05 13:04:26;;;;;;;8.43;2.28;;;;;;;;;;4972734;28;20493;-79
2022/09/05 13:07:22;;;;;;;9.75;2.38;;;;;;;;;;4972313;28;20129;-78
2022/09/05 13:10:21;;;;;;;12.75;2.17;;;;;;;;;;4964412;28;20042;-74
2022/09/05 13:13:32;;;;;;;9.55;2.33;;;;;;;;;;4977980;28;20041;-79
2022/09/05 13:16:22;;;;;;;12.60;2.65;;;;;;;;;;4969701;28;20779;-78
2022/09/05 13:19:19;;;;;;;12.18;2.28;;;;;;;;;;4967035;28;20049;-74
2022/09/05 13:22:05;;;;;;;12.57;2.50;;;;;;;;;;4969909;28;20053;-74
2022/09/05 13:24:58;;;;;;;11.63;2.80;;;;;;;;;;4971149;28;20050;-82
2022/09/05 13:27:55;;;;;;;14.73;2.60;;;;;;;;;;4962100;28;20067;-79
2022/09/05 13:30:55;;;;;;;13.70;2.70;;;;;;;;;;4975374;28;20046;-79
2022/09/05 13:33:50;;;;;;;10.23;2.90;;;;;;;;;;4967240;28;20073;-79
2022/09/05 13:36:36;;;;;;;9.15;2.45;;;;;;;;;;4970925;28;20395;-78
2022/09/05 13:39:26;;;;;;;13.52;2.60;;;;;;;;;;4973742;28;20038;-81
2022/09/05 13:42:17;;;;;;;8.68;2.47;;;;;;;;;;4976942;28;20077;-77
2022/09/05 13:45:01;;;;;;;12.30;2.75;;;;;;;;;;4969549;28;20622;-80
2022/09/05 13:47:51;;;;;;;12.15;2.53;;;;;;;;;;4976280;28;20097;-79
2022/09/05 13:50:40;;;;;;;12.18;2.53;;;;;;;;;;4975001;28;20084;-79
2022/09/05 13:53:57;;;;;;;13.43;2.72;;;;;;;;;;4974618;28;20177;-80
2022/09/05 13:56:52;;;;;;;11.07;2.47;;;;;;;;;;4966850;28;20555;-79
2022/09/05 13:59:40;;;;;;;7.93;2.47;;;;;;;;;;4970528;28;20093;-79
2022/09/05 14:02:43;;;;;;;12.82;2.65;;;;;;;;;;4970755;28;20330;-78
2022/09/05 14:05:40;;;;;;;14.30;2.80;;;;;;;;;;4970527;28;20160;-79
2022/09/05 14:08:39;;;;;;;10.10;2.45;;;;;;;;;;4956144;28;20060;-81
2022/09/05 14:12:10;;;;;;;10.45;2.30;;;;;;;;;;4965879;28;20042;-78
2022/09/05 14:15:26;;;;;;;9.73;2.33;;;;;;;;;;4987866;28;20104;-80
2022/09/05 14:21:14;;;;;;;9.32;2.55;;;;;;;;;;4953870;28;20058;-68
2022/09/05 14:21:40;;;;;;;12.80;3.17;;;;;;;;;;4958783;28;20050;-68
2022/09/05 14:24:26;;;;;;;17.85;3.33;;;;;;;;;;4946445;28;20386;-69
2022/09/05 14:27:16;;;;;;;17.50;2.90;;;;;;;;;;4950819;28;20038;-70
2022/09/05 14:29:47;;;;;;;11.23;2.80;;;;;;;;;;4957042;28;20084;-69
2022/09/05 14:32:19;;;;;;;11.13;2.53;;;;;;;;;;4958693;28;20489;-68
2022/09/05 14:35:00;;;;;;;10.93;2.60;;;;;;;;;;4959725;28;20055;-73
2022/09/05 14:38:04;;;;;;;13.65;3.15;;;;;;;;;;4955589;28;20497;-72
2022/09/05 14:40:36;;;;;;;10.55;2.60;;;;;;;;;;4956916;28;20405;-70
2022/09/05 14:43:13;;;;;;;7.53;2.25;;;;;;;;;;4957200;28;20215;-73
2022/09/05 14:46:06;;;;;;;10.13;2.30;;;;;;;;;;4933610;28;20055;-73
2022/09/05 14:48:31;;;;;;;15.40;2.65;;;;;;;;;;4921180;29;20142;-71
2022/09/05 14:51:16;;;;;;;13.00;2.40;;;;;;;;;;4937369;28;20178;-71
2022/09/05 14:54:13;;;;;;;10.68;2.40;;;;;;;;;;4923794;29;20043;-69
2022/09/05 14:56:47;;;;;;;10.82;3.08;;;;;;;;;;4963084;28;20053;-72
2022/09/05 14:59:19;;;;;;;11.77;2.30;;;;;;;;;;4963522;28;20518;-70
2022/09/05 15:01:59;;;;;;;12.10;2.65;;;;;;;;;;4961520;28;20513;-71
2022/09/05 15:04:32;;;;;;;12.68;2.85;;;;;;;;;;4967920;28;20501;-69
2022/09/05 15:07:21;;;;;;;13.90;2.45;;;;;;;;;;4966574;28;20142;-72
2022/09/05 15:10:16;;;;;;;11.82;2.72;;;;;;;;;;4962677;28;20043;-74
2022/09/05 15:13:10;;;;;;;10.63;2.63;;;;;;;;;;4945142;28;20299;-72
2022/09/05 15:15:40;;;;;;;15.07;3.13;;;;;;;;;;4968554;28;20085;-69
2022/09/05 15:18:24;;;;;;;10.30;2.58;;;;;;;;;;4966242;28;20616;-71
2022/09/05 15:20:56;;;;;;;10.77;2.47;;;;;;;;;;4968325;28;20051;-71
2022/09/05 15:23:21;;;;;;;13.07;2.63;;;;;;;;;;4961101;28;20047;-75
2022/09/05 15:26:06;;;;;;;12.10;2.97;;;;;;;;;;4967652;28;20138;-73
2022/09/05 15:28:39;;;;;;;12.63;2.67;;;;;;;;;;4964250;28;20049;-70
2022/09/05 15:31:24;;;;;;;11.00;2.72;;;;;;;;;;4963097;28;20039;-73
2022/09/05 15:33:52;;;;;;;15.70;2.95;;;;;;;;;;4961938;28;20431;-71
2022/09/05 15:36:39;;;;;;;15.30;3.95;;;;;;;;;;4968635;28;20054;-78
2022/09/05 15:39:25;;;;;;;8.60;2.75;;;;;;;;;;4963946;28;20380;-67
2022/09/05 15:41:54;;;;;;;11.70;2.70;;;;;;;;;;4970345;28;20105;-71
2022/09/05 15:44:28;;;;;;;13.82;3.13;;;;;;;;;;4960985;28;20053;-72
2022/09/05 15:46:59;;;;;;;13.40;2.90;;;;;;;;;;4971552;28;20104;-71
2022/09/05 15:49:36;;;;;;;16.13;2.85;;;;;;;;;;4967983;28;20057;-71
2022/09/05 15:52:32;;;;;;;14.88;3.13;;;;;;;;;;4960009;28;20039;-69
2022/09/05 15:55:22;;;;;;;14.73;2.53;;;;;;;;;;4968216;28;20051;-70
2022/09/05 15:58:03;;;;;;;15.65;2.88;;;;;;;;;;4972661;28;20047;-70
2022/09/05 16:00:32;;;;;;;12.65;2.58;;;;;;;;;;4970736;28;20547;-69
2022/09/05 16:03:01;;;;;;;9.90;2.78;;;;;;;;;;4971017;28;20134;-69
2022/09/05 16:05:29;;;;;;;15.35;3.03;;;;;;;;;;4980162;28;20054;-69
2022/09/05 16:08:06;;;;;;;12.05;2.53;;;;;;;;;;4974224;28;20054;-70
2022/09/05 16:10:34;;;;;;;13.38;3.42;;;;;;;;;;4972035;28;20038;-71
2022/09/05 16:13:12;;;;;;;16.80;2.72;;;;;;;;;;4970117;28;20047;-70
2022/09/05 16:15:49;;;;;;;13.05;2.83;;;;;;;;;;4963054;28;20505;-68
2022/09/05 16:18:15;;;;;;;14.00;2.70;;;;;;;;;;4967851;28;20046;-70
2022/09/05 16:20:44;;;;;;;8.98;2.92;;;;;;;;;;4970046;28;20092;-71
2022/09/05 16:23:28;;;;;;;17.75;3.63;;;;;;;;;;4952812;28;20054;-68
2022/09/05 16:26:09;;;;;;;13.45;2.60;;;;;;;;;;4957918;28;20050;-69
2022/09/05 16:28:40;;;;;;;12.98;2.80;;;;;;;;;;4969852;28;20070;-70
2022/09/05 16:31:18;;;;;;;11.88;2.80;;;;;;;;;;4970984;28;20133;-70
2022/09/05 16:33:46;;;;;;;13.48;3.00;;;;;;;;;;4969973;28;20039;-71
2022/09/05 16:36:21;;;;;;;10.25;2.53;;;;;;;;;;4971477;28;20356;-71
2022/09/05 16:38:57;;;;;;;13.63;2.60;;;;;;;;;;4969023;28;20046;-70
2022/09/05 16:41:42;;;;;;;9.25;2.50;;;;;;;;;;4970881;28;20047;-69
2022/09/05 16:44:26;;;;;;;14.45;2.70;;;;;;;;;;4966025;28;20051;-71
2022/09/05 16:47:03;;;;;;;9.63;2.60;;;;;;;;;;4969796;28;20058;-71
2022/09/05 16:49:39;;;;;;;10.65;2.70;;;;;;;;;;4951782;28;20493;-70
2022/09/05 16:52:07;;;;;;;11.20;2.13;;;;;;;;;;4970088;28;20587;-70
2022/09/05 16:55:01;;;;;;;10.40;2.42;;;;;;;;;;4970162;28;20043;-71
2022/09/05 16:57:35;;;;;;;12.10;2.42;;;;;;;;;;4975348;28;20409;-68
2022/09/05 17:00:04;;;;;;;11.85;2.35;;;;;;;;;;4970343;28;20047;-68
2022/09/05 17:02:42;;;;;;;10.45;2.20;;;;;;;;;;4970885;28;20054;-69
2022/09/05 17:05:32;;;;;;;11.02;2.50;;;;;;;;;;4970449;28;20117;-70
2022/09/05 17:08:27;;;;;;;10.25;2.50;;;;;;;;;;4964376;28;20105;-69
2022/09/05 17:11:03;;;;;;;8.95;2.33;;;;;;;;;;4967658;28;20444;-70
2022/09/05 17:13:55;;;;;;;13.75;2.75;;;;;;;;;;4970049;28;20065;-69
2022/09/05 17:16:33;;;;;;;9.13;2.20;;;;;;;;;;4955733;28;20054;-71
2022/09/05 17:19:00;;;;;;;7.60;2.17;;;;;;;;;;4966645;28;20058;-69
2022/09/05 17:21:39;;;;;;;6.85;1.90;;;;;;;;;;4970996;28;20424;-69
2022/09/05 17:24:11;;;;;;;9.20;2.20;;;;;;;;;;4969606;28;20069;-70
2022/09/05 17:26:42;;;;;;;5.60;2.08;;;;;;;;;;4983780;28;20392;-70